Time;durP1;ratioP1;P1;durP2;ratioP2;P2;SDS_P1;SDS_P2;PMS_P1;PMS_P2;Temp;Humidity;BMP_temperature;BMP_pressure;BME280_temperature;BME280_humidity;BME280_pressure;Samples;Min_cycle;Max_cycle;Signal;HPM_P1;HPM_P2
2022/03/20 00:00:53;;;;;;;149.40;62.60;;;;;;;-3.16;56.86;102145.56;109357;1274;23229;-60
2022/03/20 00:03:23;;;;;;;150.60;64.90;;;;;;;-3.18;56.92;102141.29;109372;1274;23483;-60
2022/03/20 00:05:53;;;;;;;160.90;71.00;;;;;;;-3.22;57.13;102136.58;109326;1274;139031;-60
2022/03/20 00:08:21;;;;;;;153.30;65.50;;;;;;;-3.23;57.07;102138.58;109348;1274;22437;-60
2022/03/20 00:10:50;;;;;;;156.20;67.90;;;;;;;-3.26;56.90;102138.23;109246;1274;138072;-60
2022/03/20 00:13:21;;;;;;;149.60;67.70;;;;;;;-3.28;56.75;102140.70;109394;1273;22511;-60
2022/03/20 00:15:54;;;;;;;147.80;66.90;;;;;;;-3.30;56.90;102140.10;109294;1273;139111;-60
2022/03/20 00:18:26;;;;;;;166.10;65.70;;;;;;;-3.30;56.94;102140.67;109261;1274;22427;-60
2022/03/20 00:20:57;;;;;;;157.30;67.80;;;;;;;-3.32;56.86;102134.92;109367;1273;22396;-60
2022/03/20 00:23:27;;;;;;;155.90;67.60;;;;;;;-3.33;56.83;102133.41;109243;1274;138122;-60
2022/03/20 00:25:56;;;;;;;152.30;65.40;;;;;;;-3.33;56.71;102133.23;109365;1274;22257;-60
2022/03/20 00:28:24;;;;;;;146.30;66.00;;;;;;;-3.34;56.69;102129.75;109273;1273;138893;-60
2022/03/20 00:30:55;;;;;;;157.60;67.80;;;;;;;-3.34;56.83;102130.64;109316;1275;22449;-60
2022/03/20 00:33:23;;;;;;;164.90;67.40;;;;;;;-3.34;56.79;102132.96;109325;1273;22420;-60
2022/03/20 00:35:52;;;;;;;165.80;67.20;;;;;;;-3.32;56.92;102134.77;107932;1273;138132;-60
2022/03/20 00:38:21;;;;;;;166.00;70.60;;;;;;;-3.32;56.81;102125.33;109421;1273;22487;-60
2022/03/20 00:40:50;;;;;;;158.40;68.20;;;;;;;-3.31;56.98;102128.61;109192;1275;138904;-60
2022/03/20 00:43:18;;;;;;;178.40;67.30;;;;;;;-3.27;56.77;102131.94;109275;1275;22446;-60
2022/03/20 00:45:46;;;;;;;153.50;63.80;;;;;;;-3.26;56.78;102135.22;109225;1275;139216;-60
2022/03/20 00:48:14;;;;;;;143.30;60.10;;;;;;;-3.25;56.88;102128.09;109363;1273;22438;-60
2022/03/20 00:50:42;;;;;;;146.60;61.40;;;;;;;-3.24;56.98;102127.23;109307;1274;23076;-60
2022/03/20 00:53:11;;;;;;;148.70;60.70;;;;;;;-3.22;57.00;102130.19;109250;1274;138820;-60
2022/03/20 00:55:40;;;;;;;136.80;57.60;;;;;;;-3.22;56.98;102126.43;109366;1273;23201;-60
2022/03/20 00:58:10;;;;;;;130.90;52.50;;;;;;;-3.22;57.06;102122.85;109268;1274;138353;-60
2022/03/20 01:00:42;;;;;;;133.80;50.90;;;;;;;-3.16;57.24;102121.05;109343;1273;22512;-60
2022/03/20 01:03:10;;;;;;;134.40;54.30;;;;;;;-3.10;57.29;102117.92;109307;1274;22438;-60
2022/03/20 01:05:40;;;;;;;118.60;46.10;;;;;;;-3.02;57.26;102120.78;108296;1276;138451;-60
2022/03/20 01:08:09;;;;;;;118.50;45.80;;;;;;;-2.91;57.21;102120.19;109351;1273;22268;-60
2022/03/20 01:10:38;;;;;;;125.00;48.60;;;;;;;-2.80;57.12;102119.06;109266;1273;138869;-60
2022/03/20 01:13:06;;;;;;;116.80;48.20;;;;;;;-2.72;56.98;102117.20;109356;1274;22385;-60
2022/03/20 01:15:34;;;;;;;112.90;46.60;;;;;;;-2.65;56.85;102116.02;109220;1274;138204;-60
2022/03/20 01:18:03;;;;;;;116.80;47.90;;;;;;;-2.62;56.86;102120.58;109352;1274;22518;-60
2022/03/20 01:20:32;;;;;;;114.20;48.10;;;;;;;-2.61;56.97;102122.52;109269;1274;22261;-60
2022/03/20 01:23:00;;;;;;;117.50;48.30;;;;;;;-2.62;57.10;102122.70;109247;1274;138767;-60
2022/03/20 01:25:30;;;;;;;108.80;45.10;;;;;;;-2.62;57.18;102122.40;109322;1274;22448;-60
2022/03/20 01:28:02;;;;;;;109.80;44.10;;;;;;;-2.63;57.15;102120.16;109213;1274;139753;-60
2022/03/20 01:30:31;;;;;;;117.90;46.30;;;;;;;-2.66;57.18;102118.02;109295;1274;23495;-60
2022/03/20 01:32:59;;;;;;;112.50;47.60;;;;;;;-2.68;57.43;102119.79;109322;1274;22238;-61
2022/03/20 01:35:28;;;;;;;107.60;44.90;;;;;;;-2.72;57.61;102115.99;109204;1274;138844;-60
2022/03/20 01:37:56;;;;;;;102.60;44.20;;;;;;;-2.77;57.76;102110.48;109306;1276;22539;-60
2022/03/20 01:40:25;;;;;;;99.00;43.90;;;;;;;-2.81;57.85;102109.30;109199;1274;137937;-60
2022/03/20 01:42:53;;;;;;;99.50;42.70;;;;;;;-2.84;57.97;102109.34;109380;1274;22408;-60
2022/03/20 01:45:22;;;;;;;106.50;45.90;;;;;;;-2.87;58.16;102113.61;109321;1274;22247;-60
2022/03/20 01:47:51;;;;;;;99.90;43.00;;;;;;;-2.90;58.51;102114.06;109269;1274;138872;-60
2022/03/20 01:50:21;;;;;;;110.60;44.20;;;;;;;-2.93;58.46;102115.17;109304;1273;23551;-61
2022/03/20 01:52:51;;;;;;;91.90;40.60;;;;;;;-2.96;58.77;102113.45;109236;1275;138715;-60
2022/03/20 01:55:20;;;;;;;100.70;42.00;;;;;;;-2.99;58.75;102110.09;109270;1274;22452;-60
2022/03/20 01:57:49;;;;;;;94.40;38.70;;;;;;;-3.01;58.96;102114.60;109090;1276;140258;-60
2022/03/20 02:00:19;;;;;;;91.40;41.90;;;;;;;-3.00;58.99;102114.44;109357;1274;22436;-60
2022/03/20 02:02:47;;;;;;;96.10;39.80;;;;;;;-3.00;58.96;102113.16;109234;1274;23137;-60
2022/03/20 02:05:16;;;;;;;89.50;38.40;;;;;;;-2.98;58.97;102111.23;109166;1274;138991;-60
2022/03/20 02:07:47;;;;;;;88.50;36.90;;;;;;;-2.97;58.96;102109.38;109313;1274;22507;-60
2022/03/20 02:10:15;;;;;;;90.60;39.10;;;;;;;-2.97;58.97;102111.33;109224;1274;137978;-60
2022/03/20 02:12:46;;;;;;;85.40;38.30;;;;;;;-2.98;59.02;102111.98;109376;1274;22557;-60
2022/03/20 02:15:14;;;;;;;87.80;36.70;;;;;;;-3.00;58.99;102113.66;109408;1274;22445;-60
2022/03/20 02:17:43;;;;;;;86.50;40.00;;;;;;;-3.02;59.02;102113.63;109365;1274;138559;-60
2022/03/20 02:20:11;;;;;;;96.30;37.80;;;;;;;-3.04;59.02;102109.58;109435;1273;22454;-59
2022/03/20 02:22:42;;;;;;;96.10;39.90;;;;;;;-3.08;59.11;102104.84;109294;1274;137650;-60
2022/03/20 02:25:11;;;;;;;89.70;38.80;;;;;;;-3.11;59.03;102103.11;109458;1273;23464;-59
2022/03/20 02:27:39;;;;;;;91.80;37.80;;;;;;;-3.13;59.41;102104.13;109357;1273;138399;-60
2022/03/20 02:30:16;;;;;;;95.40;41.10;;;;;;;-3.14;59.13;102100.80;109420;1274;22510;-60
2022/03/20 02:32:47;;;;;;;88.00;38.50;;;;;;;-3.17;59.29;102099.76;109382;1273;22580;-60
2022/03/20 02:35:17;;;;;;;97.40;36.50;;;;;;;-3.19;59.46;102102.80;109272;1273;138998;-60
2022/03/20 02:37:51;;;;;;;92.80;37.00;;;;;;;-3.23;59.56;102106.23;109375;1274;22624;-60
2022/03/20 02:40:20;;;;;;;91.50;39.40;;;;;;;-3.25;59.41;102112.94;109170;1276;138401;-60
2022/03/20 02:42:51;;;;;;;98.60;40.60;;;;;;;-3.28;59.74;102117.58;109380;1274;23673;-60
2022/03/20 02:45:29;;;;;;;96.50;41.10;;;;;;;-3.31;59.70;102114.95;108997;1274;25932;-59
2022/03/20 02:48:00;;;;;;;97.20;38.10;;;;;;;-3.34;59.92;102114.63;104830;1276;138404;-59
2022/03/20 02:50:30;;;;;;;106.40;41.40;;;;;;;-3.37;59.97;102108.84;109384;1274;23302;-60
2022/03/20 02:53:03;;;;;;;107.00;44.10;;;;;;;-3.42;60.04;102106.82;109244;1274;138777;-60
2022/03/20 02:55:36;;;;;;;96.80;40.60;;;;;;;-3.45;60.24;102107.75;109414;1274;22436;-60
2022/03/20 02:58:06;;;;;;;87.90;39.50;;;;;;;-3.48;60.41;102110.63;109246;1274;139006;-60
2022/03/20 03:00:34;;;;;;;99.10;41.60;;;;;;;-3.52;60.37;102115.33;109377;1274;23138;-60
2022/03/20 03:03:13;;;;;;;96.70;40.50;;;;;;;-3.56;60.72;102116.33;109389;1274;22311;-60
2022/03/20 03:05:42;;;;;;;95.90;43.50;;;;;;;-3.59;60.82;102110.86;109238;1274;139727;-60
2022/03/20 03:11:01;;;;;;;;;;;;;;;-3.67;60.87;102106.04;109222;1274;138011;-59
2022/03/20 03:13:37;;;;;;;83.30;33.20;;;;;;;-3.70;61.14;102104.30;109316;1274;22424;-59
2022/03/20 03:16:13;;;;;;;95.50;41.30;;;;;;;-3.73;61.16;102102.00;109166;1272;138925;-60
2022/03/20 03:18:45;;;;;;;97.70;41.90;;;;;;;-3.74;61.25;102105.65;109298;1275;22467;-60
2022/03/20 03:21:15;;;;;;;116.00;47.40;;;;;;;-3.75;61.38;102103.39;109148;1276;22434;-59
2022/03/20 03:23:43;;;;;;;124.90;49.30;;;;;;;-3.76;61.10;102102.73;109169;1276;139092;-59
2022/03/20 03:26:12;;;;;;;119.30;48.00;;;;;;;-3.77;61.34;102099.77;107065;1276;427994;-60
2022/03/20 03:29:42;;;;;;;159.50;59.20;;;;;;;-3.75;61.45;102095.05;101715;1309;545312;-59
2022/03/20 03:32:10;;;;;;;147.30;60.20;;;;;;;-3.77;61.51;102093.80;108047;1288;25415;-59
2022/03/20 03:37:25;;;;;;;137.50;56.60;;;;;;;-3.72;61.81;102084.04;108202;1287;22487;-59
2022/03/20 03:39:53;;;;;;;146.80;59.90;;;;;;;-3.71;61.66;102087.30;108106;1287;138120;-59
2022/03/20 03:42:21;;;;;;;148.80;58.70;;;;;;;-3.71;61.56;102080.73;108084;1286;148515;-59
2022/03/20 03:44:50;;;;;;;154.50;61.40;;;;;;;-3.70;61.63;102079.27;108417;1284;22444;-60
2022/03/20 03:47:19;;;;;;;178.60;66.90;;;;;;;-3.70;61.77;102081.01;108343;1286;138002;-59
2022/03/20 03:49:48;;;;;;;158.90;63.30;;;;;;;-3.69;61.59;102077.61;108480;1285;22413;-59
2022/03/20 03:52:16;;;;;;;176.90;69.00;;;;;;;-3.68;61.96;102076.12;108330;1286;138048;-59
2022/03/20 03:54:46;;;;;;;174.20;70.60;;;;;;;-3.66;61.96;102080.61;109144;1278;22408;-60
2022/03/20 03:57:19;;;;;;;175.50;70.20;;;;;;;-3.65;62.04;102085.14;109171;1278;22498;-60
2022/03/20 03:59:48;;;;;;;181.70;71.80;;;;;;;-3.65;61.91;102084.45;108870;1279;137912;-60
2022/03/20 04:02:16;;;;;;;181.20;69.50;;;;;;;-3.66;61.99;102082.52;109144;1278;23252;-60
2022/03/20 04:04:46;;;;;;;180.90;76.80;;;;;;;-3.66;61.90;102084.69;109031;1277;137632;-60
2022/03/20 04:07:18;;;;;;;194.10;71.80;;;;;;;-3.67;62.07;102073.58;109126;1278;22414;-60
2022/03/20 04:09:50;;;;;;;196.80;74.80;;;;;;;-3.68;62.26;102071.80;108988;1277;138726;-60
2022/03/20 04:12:40;;;;;;;178.30;71.10;;;;;;;-3.66;62.10;102064.58;109145;1277;23747;-60
2022/03/20 04:15:08;;;;;;;183.10;72.00;;;;;;;-3.64;62.09;102065.70;109174;1278;22398;-59
2022/03/20 04:17:37;;;;;;;192.60;76.00;;;;;;;-3.60;62.22;102068.80;108954;1277;137647;-60
2022/03/20 04:20:14;;;;;;;200.50;78.40;;;;;;;-3.58;62.28;102069.00;109048;1278;22474;-60
2022/03/20 04:25:31;;;;;;;186.90;73.90;;;;;;;-3.50;62.43;102062.27;109116;1278;22309;-60
2022/03/20 04:27:59;;;;;;;184.20;73.30;;;;;;;-3.46;62.54;102064.98;109028;1277;138775;-60
2022/03/20 04:30:28;;;;;;;196.00;74.00;;;;;;;-3.41;62.35;102060.60;109181;1278;22423;-60
2022/03/20 04:32:58;;;;;;;194.40;76.90;;;;;;;-3.36;62.40;102060.44;109136;1277;22425;-60
2022/03/20 04:35:26;;;;;;;193.70;79.50;;;;;;;-3.31;62.39;102065.23;109039;1277;137625;-60
2022/03/20 04:38:01;;;;;;;190.60;75.40;;;;;;;-3.29;62.42;102069.85;109099;1278;22424;-60
2022/03/20 04:40:30;;;;;;;199.90;80.10;;;;;;;-3.25;62.52;102072.79;109039;1278;138898;-60
2022/03/20 04:42:59;;;;;;;199.70;81.60;;;;;;;-3.23;62.53;102078.84;109178;1278;22420;-59
2022/03/20 04:45:27;;;;;;;218.20;86.60;;;;;;;-3.20;62.52;102077.23;109134;1278;23076;-60
2022/03/20 04:59:04;;;;;;;279.70;101.10;;;;;;;-2.74;61.96;102084.46;109316;1274;138138;-60
2022/03/20 05:01:32;;;;;;;267.20;100.90;;;;;;;-2.65;61.79;102086.66;109443;1274;22444;-60
2022/03/20 05:04:01;;;;;;;274.10;104.40;;;;;;;-2.55;61.66;102087.15;109334;1274;138023;-60
2022/03/20 05:06:29;;;;;;;314.30;111.20;;;;;;;-2.43;61.45;102087.41;107020;1274;22596;-60
2022/03/20 05:13:19;;;;;;;290.70;105.20;;;;;;;-2.32;60.74;102089.46;109429;1274;23209;-60
2022/03/20 05:14:32;;;;;;;259.40;92.90;;;;;;;-2.10;60.30;102082.66;109348;1276;22535;-60
2022/03/20 05:17:06;;;;;;;301.70;100.80;;;;;;;-1.99;59.95;102088.91;109276;1274;137932;-60
2022/03/20 05:19:35;;;;;;;276.30;102.90;;;;;;;-1.91;59.61;102089.20;109307;1276;22660;-60
2022/03/20 05:22:04;;;;;;;273.10;96.70;;;;;;;-1.84;59.43;102091.48;109225;1276;139366;-60
2022/03/20 05:24:35;;;;;;;249.20;92.80;;;;;;;-1.75;59.24;102095.01;109346;1275;22586;-60
2022/03/20 05:27:04;;;;;;;243.20;96.00;;;;;;;-1.67;59.01;102095.77;109360;1275;22426;-60
2022/03/20 05:29:32;;;;;;;253.80;94.10;;;;;;;-1.60;58.86;102093.27;109221;1274;138332;-60
2022/03/20 05:32:01;;;;;;;270.70;98.90;;;;;;;-1.53;58.74;102097.87;109310;1276;22454;-60
2022/03/20 05:34:29;;;;;;;271.20;98.00;;;;;;;-1.47;58.65;102099.58;109199;1275;137787;-60
2022/03/20 05:36:58;;;;;;;264.40;96.80;;;;;;;-1.40;58.50;102102.40;109262;1276;22500;-60
2022/03/20 05:39:26;;;;;;;256.40;98.10;;;;;;;-1.33;58.09;102101.02;109093;1278;22480;-60
2022/03/20 05:41:54;;;;;;;268.50;97.90;;;;;;;-1.25;57.92;102103.76;109322;1274;137574;-60
2022/03/20 05:44:23;;;;;;;260.50;100.80;;;;;;;-1.16;57.72;102104.16;109422;1274;22401;-60
2022/03/20 05:46:52;;;;;;;282.30;96.30;;;;;;;-1.08;57.86;102100.65;109296;1274;137672;-60
2022/03/20 05:49:22;;;;;;;248.00;90.60;;;;;;;-0.99;57.42;102104.59;109311;1275;22394;-60
2022/03/20 05:51:51;;;;;;;231.20;88.60;;;;;;;-0.90;56.95;102108.00;109211;1274;139876;-60
2022/03/20 05:54:19;;;;;;;233.20;83.20;;;;;;;-0.82;56.82;102112.54;109148;1276;22474;-60
2022/03/20 05:59:35;;;;;;;207.50;78.50;;;;;;;-0.63;56.44;102116.52;109318;1274;138093;-60
2022/03/20 06:02:04;;;;;;;190.90;73.10;;;;;;;-0.53;56.02;102118.58;109281;1276;22452;-60
2022/03/20 06:04:33;;;;;;;205.60;73.00;;;;;;;-0.46;55.80;102120.48;109290;1274;137925;-60
2022/03/20 06:07:01;;;;;;;181.00;70.20;;;;;;;-0.39;55.26;102122.77;109422;1274;22497;-60
2022/03/20 06:09:30;;;;;;;188.80;72.30;;;;;;;-0.30;55.32;102128.38;109398;1274;22468;-60
2022/03/20 06:11:58;;;;;;;187.70;70.90;;;;;;;-0.23;55.10;102131.14;109365;1274;137649;-60
2022/03/20 06:14:29;;;;;;;179.30;65.50;;;;;;;-0.16;55.26;102127.86;109393;1274;22380;-60
2022/03/20 06:16:59;;;;;;;156.50;66.20;;;;;;;-0.05;55.08;102130.92;109317;1274;138669;-60
2022/03/20 06:19:27;;;;;;;147.80;60.90;;;;;;;0.06;54.70;102132.34;109434;1274;22413;-60
2022/03/20 06:21:55;;;;;;;142.90;59.70;;;;;;;0.17;54.83;102125.73;109368;1274;137946;-60
2022/03/20 06:24:23;;;;;;;153.10;59.80;;;;;;;0.28;54.63;102127.48;109419;1274;22495;-60
2022/03/20 06:26:51;;;;;;;143.70;58.10;;;;;;;0.39;53.82;102126.95;109451;1274;22460;-60
2022/03/20 06:29:20;;;;;;;135.20;52.50;;;;;;;0.48;53.41;102127.78;109331;1273;139069;-60
2022/03/20 06:31:50;;;;;;;110.50;47.40;;;;;;;0.57;52.96;102128.20;109445;1274;22612;-60
2022/03/20 06:34:18;;;;;;;95.90;42.70;;;;;;;0.66;52.78;102126.73;109337;1274;138306;-60
2022/03/20 06:36:47;;;;;;;99.90;42.80;;;;;;;0.75;52.59;102119.35;109372;1274;22446;-60
2022/03/20 06:39:15;;;;;;;105.30;41.90;;;;;;;0.86;52.41;102117.20;109441;1273;22435;-60
2022/03/20 06:41:43;;;;;;;82.60;34.80;;;;;;;0.99;52.27;102113.38;109346;1274;137874;-60
2022/03/20 06:44:15;;;;;;;83.40;34.70;;;;;;;1.13;52.03;102117.92;109426;1274;22374;-60
2022/03/20 06:47:03;;;;;;;86.20;34.20;;;;;;;1.27;51.15;102117.66;109325;1274;138320;-60
2022/03/20 06:49:32;;;;;;;70.90;30.80;;;;;;;1.41;50.63;102115.56;109447;1274;22411;-60
2022/03/20 06:52:00;;;;;;;63.80;29.80;;;;;;;1.54;50.17;102117.84;109310;1274;137558;-61
2022/03/20 06:54:29;;;;;;;63.00;27.10;;;;;;;1.65;49.78;102122.39;109408;1274;22383;-60
2022/03/20 06:56:57;;;;;;;68.40;27.50;;;;;;;1.74;49.68;102124.81;109454;1274;23153;-60
2022/03/20 06:59:25;;;;;;;65.00;25.60;;;;;;;1.84;49.08;102125.55;109333;1274;137428;-60
2022/03/20 07:01:54;;;;;;;56.80;23.90;;;;;;;1.94;48.57;102121.39;109447;1274;22467;-60
2022/03/20 07:04:22;;;;;;;52.90;25.10;;;;;;;2.02;48.84;102123.50;109286;1274;137746;-60
2022/03/20 07:06:50;;;;;;;53.20;23.80;;;;;;;2.12;48.43;102123.18;109449;1274;22378;-60
2022/03/20 07:09:18;;;;;;;49.70;23.20;;;;;;;2.19;48.34;102116.77;109327;1274;22424;-60
2022/03/20 07:11:46;;;;;;;42.60;20.50;;;;;;;2.26;48.17;102113.09;109381;1274;138030;-60
2022/03/20 07:14:15;;;;;;;38.70;18.40;;;;;;;2.33;47.71;102114.52;109429;1274;22447;-59
2022/03/20 07:16:43;;;;;;;34.60;17.60;;;;;;;2.40;47.52;102115.36;109350;1274;137469;-59
2022/03/20 07:19:17;;;;;;;38.30;16.70;;;;;;;2.48;47.39;102110.67;109462;1274;22448;-59
2022/03/20 07:22:06;;;;;;;33.60;17.40;;;;;;;2.62;47.00;102113.20;109348;1274;137365;-59
2022/03/20 07:24:40;;;;;;;34.90;16.30;;;;;;;2.74;47.22;102105.19;109456;1274;23280;-60
2022/03/20 07:29:56;;;;;;;33.30;16.20;;;;;;;2.97;46.40;102105.86;109354;1274;138227;-60
2022/03/20 07:32:24;;;;;;;30.40;15.90;;;;;;;3.06;46.26;102103.59;109415;1274;22486;-60
2022/03/20 07:34:53;;;;;;;30.60;16.00;;;;;;;3.15;46.26;102104.83;109319;1274;138565;-60
2022/03/20 07:37:21;;;;;;;34.60;16.00;;;;;;;3.25;46.03;102107.91;109394;1274;22505;-60
2022/03/20 07:39:51;;;;;;;34.50;15.10;;;;;;;3.33;46.11;102107.28;109327;1274;137567;-60
2022/03/20 07:42:19;;;;;;;24.10;14.30;;;;;;;3.41;45.85;102103.23;109435;1274;22483;-60
2022/03/20 07:44:50;;;;;;;27.40;14.70;;;;;;;3.50;45.62;102104.54;109462;1274;22406;-60
2022/03/20 07:47:19;;;;;;;26.70;15.90;;;;;;;3.58;45.51;102104.48;109336;1274;137511;-60
2022/03/20 07:49:47;;;;;;;31.70;13.00;;;;;;;3.68;45.67;102104.74;109442;1274;22480;-60
2022/03/20 07:52:16;;;;;;;21.70;13.00;;;;;;;3.79;45.28;102099.75;109323;1274;138269;-60
2022/03/20 07:54:45;;;;;;;22.80;10.60;;;;;;;3.89;45.16;102105.51;109449;1274;23444;-60
2022/03/20 07:57:14;;;;;;;25.40;10.10;;;;;;;4.00;44.94;102104.28;109253;1277;22469;-60
2022/03/20 07:59:44;;;;;;;14.60;8.20;;;;;;;4.10;44.71;102103.13;109315;1274;139315;-60
2022/03/20 08:02:12;;;;;;;15.90;9.00;;;;;;;4.20;44.35;102099.59;109412;1274;22477;-60
2022/03/20 08:04:41;;;;;;;17.50;8.60;;;;;;;4.29;44.12;102105.29;109334;1274;138613;-60
2022/03/20 08:07:10;;;;;;;17.70;8.30;;;;;;;4.38;44.24;102101.33;109454;1274;23253;-60
2022/03/20 08:09:38;;;;;;;18.20;9.60;;;;;;;4.48;43.58;102100.36;109336;1273;137693;-59
2022/03/20 08:12:07;;;;;;;20.80;9.50;;;;;;;4.59;43.76;102094.13;109476;1274;23392;-60
2022/03/20 08:14:56;;;;;;;13.60;8.00;;;;;;;4.69;43.78;102093.63;109437;1274;22442;-60
2022/03/20 08:17:45;;;;;;;13.80;8.10;;;;;;;4.79;43.30;102092.14;109323;1274;138379;-60
2022/03/20 08:20:14;;;;;;;15.80;8.90;;;;;;;4.83;43.62;102090.12;109427;1274;22415;-60
2022/03/20 08:22:42;;;;;;;16.80;9.70;;;;;;;4.89;43.51;102090.13;109306;1274;137813;-60
2022/03/20 08:25:11;;;;;;;15.20;9.40;;;;;;;4.97;43.38;102091.13;109456;1274;22249;-60
2022/03/20 08:27:46;;;;;;;15.20;8.60;;;;;;;5.04;43.00;102083.78;109315;1274;139154;-60
2022/03/20 08:30:15;;;;;;;13.80;8.20;;;;;;;5.10;43.14;102085.41;109427;1274;22440;-60
2022/03/20 08:32:46;;;;;;;17.40;8.50;;;;;;;5.18;43.18;102084.71;109417;1274;23092;-60
2022/03/20 08:35:19;;;;;;;17.10;8.00;;;;;;;5.26;42.30;102082.50;109207;1274;138942;-60
2022/03/20 08:37:48;;;;;;;15.30;8.10;;;;;;;5.29;42.10;102088.46;109266;1277;23191;-60
2022/03/20 08:40:19;;;;;;;12.90;7.40;;;;;;;5.30;42.14;102089.86;109227;1274;138494;-60
2022/03/20 08:42:49;;;;;;;11.70;7.30;;;;;;;5.30;41.83;102087.59;109421;1274;22406;-60
2022/03/20 08:45:17;;;;;;;16.50;7.50;;;;;;;5.33;42.00;102084.34;109433;1274;23235;-60
2022/03/20 08:47:45;;;;;;;15.70;8.80;;;;;;;5.34;41.90;102089.18;109387;1274;138150;-60
2022/03/20 08:50:14;;;;;;;14.60;7.20;;;;;;;5.39;41.78;102084.21;109409;1274;23571;-60
2022/03/20 08:52:44;;;;;;;15.90;8.50;;;;;;;5.43;41.46;102085.42;109354;1272;138225;-61
2022/03/20 08:55:13;;;;;;;15.00;8.00;;;;;;;5.44;41.51;102088.14;109452;1274;23235;-60
2022/03/20 08:57:46;;;;;;;14.60;7.80;;;;;;;5.45;41.48;102086.59;109308;1274;138353;-61
2022/03/20 09:00:18;;;;;;;12.70;7.60;;;;;;;5.49;41.16;102082.20;109432;1274;22434;-61
2022/03/20 09:02:47;;;;;;;12.90;7.80;;;;;;;5.55;41.10;102082.54;109449;1274;23503;-61
2022/03/20 09:05:16;;;;;;;16.40;7.80;;;;;;;5.58;41.01;102080.33;109282;1274;138156;-61
2022/03/20 09:07:45;;;;;;;15.30;8.90;;;;;;;5.63;40.69;102078.00;109447;1274;22416;-59
2022/03/20 09:10:17;;;;;;;17.40;7.60;;;;;;;5.68;40.71;102080.69;109327;1273;138643;-59
2022/03/20 09:12:45;;;;;;;13.90;7.90;;;;;;;5.70;40.44;102079.45;105835;1274;22565;-60
2022/03/20 09:15:17;;;;;;;16.10;9.60;;;;;;;5.71;40.60;102079.69;109361;1274;22531;-61
2022/03/20 09:20:36;;;;;;;12.80;7.70;;;;;;;5.80;40.31;102082.55;109302;1276;22938;-61
2022/03/20 09:23:05;;;;;;;15.70;9.30;;;;;;;5.83;40.43;102088.48;109301;1274;138800;-61
2022/03/20 09:25:33;;;;;;;28.80;15.10;;;;;;;5.84;40.39;102077.94;109379;1274;23075;-58
2022/03/20 09:28:06;;;;;;;13.90;8.80;;;;;;;5.85;40.28;102080.59;109303;1274;138187;-60
2022/03/20 09:30:35;;;;;;;16.60;8.00;;;;;;;5.87;40.68;102079.93;109439;1274;22464;-59
2022/03/20 09:33:05;;;;;;;15.10;7.80;;;;;;;5.95;39.86;102076.23;109410;1274;22442;-59
2022/03/20 09:35:34;;;;;;;11.70;7.30;;;;;;;6.02;39.50;102074.55;109211;1274;139397;-59
2022/03/20 09:38:03;;;;;;;15.70;8.20;;;;;;;6.10;39.10;102077.31;109310;1274;22446;-59
2022/03/20 09:40:33;;;;;;;14.70;8.10;;;;;;;6.15;39.56;102072.27;109262;1274;139209;-59
2022/03/20 09:43:02;;;;;;;14.30;9.30;;;;;;;6.18;39.74;102074.95;109447;1274;22439;-59
2022/03/20 09:45:31;;;;;;;14.40;8.00;;;;;;;6.22;39.86;102071.80;109453;1274;22563;-59
2022/03/20 09:47:59;;;;;;;45.40;19.90;;;;;;;6.27;39.59;102069.13;106860;1274;137263;-61
2022/03/20 09:50:28;;;;;;;29.40;14.40;;;;;;;6.33;39.66;102069.54;109275;1274;22639;-59
2022/03/20 09:52:56;;;;;;;13.60;8.70;;;;;;;6.41;39.53;102065.42;109275;1274;138377;-59
2022/03/20 09:55:24;;;;;;;14.40;7.70;;;;;;;6.50;38.99;102064.00;109437;1274;23140;-59
2022/03/20 09:57:57;;;;;;;11.60;7.80;;;;;;;6.62;38.21;102054.63;109367;1273;138887;-59
2022/03/20 10:00:26;;;;;;;14.00;7.00;;;;;;;6.72;38.33;102051.66;109402;1274;22467;-59
2022/03/20 10:02:55;;;;;;;9.70;6.80;;;;;;;6.81;38.12;102049.05;109367;1274;22428;-59
2022/03/20 10:05:26;;;;;;;12.40;8.10;;;;;;;6.85;38.17;102049.67;109320;1274;138109;-61
2022/03/20 10:07:54;;;;;;;17.30;10.10;;;;;;;6.89;38.84;102047.11;109424;1272;24016;-59
2022/03/20 10:10:25;;;;;;;15.00;8.70;;;;;;;6.92;38.29;102053.16;109047;1276;139343;-60
2022/03/20 10:12:56;;;;;;;13.60;8.40;;;;;;;6.96;37.93;102052.20;109417;1274;22535;-59
2022/03/20 10:15:29;;;;;;;16.00;7.00;;;;;;;6.96;38.09;102050.88;109452;1271;22431;-59
2022/03/20 10:18:11;;;;;;;12.30;5.90;;;;;;;7.00;37.40;102051.31;109349;1274;137264;-60
2022/03/20 10:20:46;;;;;;;11.10;6.70;;;;;;;7.05;37.22;102045.21;109440;1274;22456;-60
2022/03/20 10:23:31;;;;;;;10.30;5.90;;;;;;;7.07;37.16;102048.45;109334;1274;139095;-60
2022/03/20 10:26:06;;;;;;;12.00;6.80;;;;;;;7.05;37.29;102044.46;107940;1274;22722;-59
2022/03/20 10:28:39;;;;;;;16.40;7.20;;;;;;;7.07;37.27;102045.50;109293;1274;138552;-60
2022/03/20 10:31:15;;;;;;;12.80;7.10;;;;;;;7.10;37.44;102040.34;109387;1274;22441;-60
2022/03/20 10:33:46;;;;;;;12.50;6.60;;;;;;;7.15;37.45;102040.85;109259;1274;138612;-60
2022/03/20 10:36:15;;;;;;;13.60;7.10;;;;;;;7.20;37.43;102034.70;109315;1276;22436;-60
2022/03/20 10:38:46;;;;;;;24.20;7.20;;;;;;;7.23;37.15;102041.21;109447;1274;22462;-61
2022/03/20 10:41:23;;;;;;;12.50;6.70;;;;;;;7.25;37.12;102036.84;109352;1274;137495;-61
2022/03/20 10:43:55;;;;;;;11.20;6.10;;;;;;;7.25;37.46;102032.77;109435;1274;22396;-61
2022/03/20 10:46:30;;;;;;;10.30;6.30;;;;;;;7.28;37.24;102029.62;109308;1274;138953;-60
2022/03/20 10:49:03;;;;;;;9.30;5.90;;;;;;;7.32;36.79;102025.01;109300;1274;23117;-60
2022/03/20 10:51:41;;;;;;;12.00;6.40;;;;;;;7.38;36.52;102027.33;109244;1276;23610;-60
2022/03/20 10:54:14;;;;;;;8.00;5.70;;;;;;;7.43;36.63;102026.40;109355;1274;137150;-60
2022/03/20 10:56:59;;;;;;;9.70;5.50;;;;;;;7.44;36.29;102017.35;109440;1274;22419;-60
2022/03/20 10:59:29;;;;;;;9.80;5.90;;;;;;;7.49;36.22;102011.05;109319;1274;138057;-60
2022/03/20 11:02:05;;;;;;;8.30;5.50;;;;;;;7.58;36.75;102012.77;109447;1274;22281;-60
2022/03/20 11:04:35;;;;;;;8.50;5.40;;;;;;;7.68;36.32;102015.18;109293;1274;138991;-60
2022/03/20 11:07:07;;;;;;;8.40;5.10;;;;;;;7.73;35.98;102007.66;109268;1274;22238;-60
2022/03/20 11:09:36;;;;;;;8.30;5.50;;;;;;;7.75;35.71;102001.45;109267;1276;22434;-60
2022/03/20 11:12:05;;;;;;;11.80;6.40;;;;;;;7.79;35.56;101999.60;109310;1274;137049;-60
2022/03/20 11:14:35;;;;;;;9.20;5.70;;;;;;;7.81;35.46;102000.92;109360;1274;23126;-60
2022/03/20 11:17:06;;;;;;;6.70;5.20;;;;;;;7.82;35.56;102000.47;109329;1273;137389;-60
2022/03/20 11:19:35;;;;;;;9.50;5.20;;;;;;;7.83;34.76;101995.83;109476;1274;22371;-60
2022/03/20 11:22:05;;;;;;;8.70;5.80;;;;;;;7.82;35.04;101988.53;109339;1274;137477;-60
2022/03/20 11:24:33;;;;;;;10.30;6.60;;;;;;;7.83;35.09;101988.09;109433;1274;22395;-60
2022/03/20 11:27:03;;;;;;;11.60;6.10;;;;;;;7.85;35.24;101982.95;109145;1274;22416;-60
2022/03/20 11:29:51;;;;;;;9.20;5.80;;;;;;;7.87;35.27;101974.52;109290;1273;137561;-60
2022/03/20 11:32:19;;;;;;;8.90;6.10;;;;;;;7.92;35.19;101976.40;109406;1274;22457;-60
2022/03/20 11:34:49;;;;;;;9.70;5.90;;;;;;;7.97;34.82;101971.90;109221;1274;137184;-60
2022/03/20 11:37:18;;;;;;;11.20;6.20;;;;;;;8.01;34.98;101976.71;109287;1276;22259;-60
2022/03/20 11:40:08;;;;;;;10.00;5.90;;;;;;;8.01;34.37;101978.27;109256;1274;22408;-60
2022/03/20 11:42:37;;;;;;;8.60;5.60;;;;;;;8.02;34.43;101966.86;109427;1274;22205;-60
2022/03/20 11:45:06;;;;;;;13.10;7.90;;;;;;;8.03;33.92;101962.20;109373;1276;22416;-60
2022/03/20 11:47:39;;;;;;;10.30;7.20;;;;;;;8.08;34.33;101965.21;109257;1274;138124;-59